sensor_id;sensor_type;location;lat;lon;timestamp;pressure;altitude;pressure_sealevel;temperature;humidity
30730;BME280;17476;48.458;7.928;2023-02-13T00:00:53;101885.72;;;3.78;89.05
30730;BME280;17476;48.458;7.928;2023-02-13T00:03:19;101883.97;;;3.79;89.00
30730;BME280;17476;48.458;7.928;2023-02-13T00:05:44;101891.81;;;3.77;88.75
30730;BME280;17476;48.458;7.928;2023-02-13T00:08:10;101880.16;;;3.69;88.26
30730;BME280;17476;48.458;7.928;2023-02-13T00:10:36;101878.56;;;3.66;88.54
30730;BME280;17476;48.458;7.928;2023-02-13T00:13:02;101885.41;;;3.67;88.41
30730;BME280;17476;48.458;7.928;2023-02-13T00:15:28;101885.63;;;3.63;88.83
30730;BME280;17476;48.458;7.928;2023-02-13T00:17:54;101888.34;;;3.60;88.13
30730;BME280;17476;48.458;7.928;2023-02-13T00:20:20;101883.31;;;3.56;88.17
30730;BME280;17476;48.458;7.928;2023-02-13T00:22:45;101890.22;;;3.56;88.59
30730;BME280;17476;48.458;7.928;2023-02-13T00:25:11;101885.97;;;3.55;88.07
30730;BME280;17476;48.458;7.928;2023-02-13T00:27:37;101885.22;;;3.53;88.32
30730;BME280;17476;48.458;7.928;2023-02-13T00:30:05;101892.06;;;3.54;88.60
30730;BME280;17476;48.458;7.928;2023-02-13T00:32:31;101882.47;;;3.56;88.40
30730;BME280;17476;48.458;7.928;2023-02-13T00:34:57;101891.28;;;3.52;88.63
30730;BME280;17476;48.458;7.928;2023-02-13T00:37:24;101884.50;;;3.49;89.02
30730;BME280;17476;48.458;7.928;2023-02-13T00:39:50;101884.50;;;3.49;89.37
30730;BME280;17476;48.458;7.928;2023-02-13T00:42:16;101890.66;;;3.47;90.31
30730;BME280;17476;48.458;7.928;2023-02-13T00:44:41;101884.56;;;3.48;89.89
30730;BME280;17476;48.458;7.928;2023-02-13T00:47:07;101888.00;;;3.48;90.23
30730;BME280;17476;48.458;7.928;2023-02-13T00:49:34;101886.09;;;3.52;90.63
30730;BME280;17476;48.458;7.928;2023-02-13T00:52:00;101886.44;;;3.44;91.01
30730;BME280;17476;48.458;7.928;2023-02-13T00:54:25;101886.03;;;3.35;91.66
30730;BME280;17476;48.458;7.928;2023-02-13T00:56:54;101888.75;;;3.32;92.15
30730;BME280;17476;48.458;7.928;2023-02-13T00:59:20;101891.56;;;3.27;91.35
30730;BME280;17476;48.458;7.928;2023-02-13T01:01:46;101898.34;;;3.29;91.45
30730;BME280;17476;48.458;7.928;2023-02-13T01:04:12;101898.34;;;3.29;90.83
30730;BME280;17476;48.458;7.928;2023-02-13T01:06:38;101893.91;;;3.32;90.17
30730;BME280;17476;48.458;7.928;2023-02-13T01:09:03;101898.97;;;3.35;90.61
30730;BME280;17476;48.458;7.928;2023-02-13T01:11:30;101905.25;;;3.29;91.02
30730;BME280;17476;48.458;7.928;2023-02-13T01:13:56;101897.41;;;3.31;92.45
30730;BME280;17476;48.458;7.928;2023-02-13T01:16:22;101900.78;;;3.33;92.37
30730;BME280;17476;48.458;7.928;2023-02-13T01:18:48;101905.16;;;3.31;92.67
30730;BME280;17476;48.458;7.928;2023-02-13T01:21:19;101904.34;;;3.30;92.76
30730;BME280;17476;48.458;7.928;2023-02-13T01:23:46;101905.81;;;3.36;94.02
30730;BME280;17476;48.458;7.928;2023-02-13T01:26:19;101908.28;;;3.18;94.74
30730;BME280;17476;48.458;7.928;2023-02-13T01:28:46;101908.63;;;3.11;94.16
30730;BME280;17476;48.458;7.928;2023-02-13T01:31:12;101902.63;;;3.10;93.27
30730;BME280;17476;48.458;7.928;2023-02-13T01:33:38;101902.50;;;3.13;92.30
30730;BME280;17476;48.458;7.928;2023-02-13T01:36:09;101911.22;;;3.11;91.90
30730;BME280;17476;48.458;7.928;2023-02-13T01:38:35;101906.84;;;3.13;91.53
30730;BME280;17476;48.458;7.928;2023-02-13T01:41:01;101906.88;;;3.11;91.11
30730;BME280;17476;48.458;7.928;2023-02-13T01:46:25;101907.09;;;3.07;90.47
30730;BME280;17476;48.458;7.928;2023-02-13T01:48:56;101914.97;;;3.04;89.95
30730;BME280;17476;48.458;7.928;2023-02-13T01:51:29;101914.28;;;3.00;89.83
30730;BME280;17476;48.458;7.928;2023-02-13T01:54:09;101912.28;;;3.07;90.55
30730;BME280;17476;48.458;7.928;2023-02-13T01:56:45;101912.53;;;3.00;89.41
30730;BME280;17476;48.458;7.928;2023-02-13T01:59:19;101916.81;;;3.01;90.19
30730;BME280;17476;48.458;7.928;2023-02-13T02:01:46;101915.47;;;2.93;89.14
30730;BME280;17476;48.458;7.928;2023-02-13T02:04:23;101914.81;;;2.88;88.73
30730;BME280;17476;48.458;7.928;2023-02-13T02:07:00;101911.47;;;2.86;88.41
30730;BME280;17476;48.458;7.928;2023-02-13T02:09:31;101909.91;;;2.82;89.41
30730;BME280;17476;48.458;7.928;2023-02-13T02:12:08;101910.88;;;2.79;88.78
30730;BME280;17476;48.458;7.928;2023-02-13T02:14:38;101912.63;;;2.79;88.77
30730;BME280;17476;48.458;7.928;2023-02-13T02:17:06;101906.88;;;2.72;88.25
30730;BME280;17476;48.458;7.928;2023-02-13T02:25:45;101911.81;;;2.56;89.28
30730;BME280;17476;48.458;7.928;2023-02-13T02:38:03;101906.31;;;2.43;88.39
30730;BME280;17476;48.458;7.928;2023-02-13T02:41:08;101914.19;;;2.40;87.73
30730;BME280;17476;48.458;7.928;2023-02-13T02:43:54;101910.06;;;2.36;87.56
30730;BME280;17476;48.458;7.928;2023-02-13T02:46:37;101908.91;;;2.43;88.51
30730;BME280;17476;48.458;7.928;2023-02-13T02:49:25;101910.97;;;2.35;87.91
30730;BME280;17476;48.458;7.928;2023-02-13T02:52:18;101918.03;;;2.30;87.73
30730;BME280;17476;48.458;7.928;2023-02-13T02:54:52;101903.47;;;2.29;87.44
30730;BME280;17476;48.458;7.928;2023-02-13T02:57:58;101912.25;;;2.25;87.75
30730;BME280;17476;48.458;7.928;2023-02-13T03:00:46;101910.69;;;2.21;87.51
30730;BME280;17476;48.458;7.928;2023-02-13T03:03:34;101899.59;;;2.19;87.21
30730;BME280;17476;48.458;7.928;2023-02-13T03:06:42;101904.84;;;2.16;87.69
30730;BME280;17476;48.458;7.928;2023-02-13T03:09:15;101902.47;;;2.11;87.50
30730;BME280;17476;48.458;7.928;2023-02-13T03:12:02;101912.91;;;2.08;87.45
30730;BME280;17476;48.458;7.928;2023-02-13T03:14:47;101914.34;;;2.15;88.79
30730;BME280;17476;48.458;7.928;2023-02-13T03:17:16;101915.91;;;2.19;89.62
30730;BME280;17476;48.458;7.928;2023-02-13T03:20:58;101912.13;;;2.06;88.37
30730;BME280;17476;48.458;7.928;2023-02-13T03:29:52;101926.16;;;1.99;88.27
30730;BME280;17476;48.458;7.928;2023-02-13T03:38:23;101924.06;;;1.87;88.11
30730;BME280;17476;48.458;7.928;2023-02-13T03:41:06;101922.44;;;1.84;87.53
30730;BME280;17476;48.458;7.928;2023-02-13T03:46:59;101918.41;;;1.77;87.01
30730;BME280;17476;48.458;7.928;2023-02-13T03:49:45;101924.47;;;1.76;87.67
30730;BME280;17476;48.458;7.928;2023-02-13T03:53:07;101922.00;;;1.73;87.63
30730;BME280;17476;48.458;7.928;2023-02-13T03:55:37;101928.97;;;1.71;87.76
30730;BME280;17476;48.458;7.928;2023-02-13T03:58:30;101928.13;;;1.71;87.71
30730;BME280;17476;48.458;7.928;2023-02-13T04:01:20;101932.47;;;1.69;87.63
30730;BME280;17476;48.458;7.928;2023-02-13T04:07:14;101937.75;;;1.66;87.96
30730;BME280;17476;48.458;7.928;2023-02-13T04:09:56;101936.94;;;1.65;88.29
30730;BME280;17476;48.458;7.928;2023-02-13T04:15:44;101942.31;;;1.59;87.94
30730;BME280;17476;48.458;7.928;2023-02-13T04:18:20;101947.47;;;1.59;88.15
30730;BME280;17476;48.458;7.928;2023-02-13T04:20:47;101943.22;;;1.58;88.24
30730;BME280;17476;48.458;7.928;2023-02-13T04:23:13;101940.63;;;1.58;88.50
30730;BME280;17476;48.458;7.928;2023-02-13T04:25:43;101955.19;;;1.59;88.47
30730;BME280;17476;48.458;7.928;2023-02-13T04:28:10;101956.09;;;1.58;88.26
30730;BME280;17476;48.458;7.928;2023-02-13T04:30:36;101959.59;;;1.57;88.57
30730;BME280;17476;48.458;7.928;2023-02-13T04:33:02;101957.00;;;1.57;88.21
30730;BME280;17476;48.458;7.928;2023-02-13T04:35:28;101964.78;;;1.55;87.98
30730;BME280;17476;48.458;7.928;2023-02-13T04:37:54;101965.75;;;1.53;88.24
30730;BME280;17476;48.458;7.928;2023-02-13T04:40:20;101970.13;;;1.51;87.91
30730;BME280;17476;48.458;7.928;2023-02-13T04:42:47;101962.47;;;1.48;88.41
30730;BME280;17476;48.458;7.928;2023-02-13T04:45:15;101958.28;;;1.45;88.39
30730;BME280;17476;48.458;7.928;2023-02-13T04:47:41;101964.34;;;1.44;88.43
30730;BME280;17476;48.458;7.928;2023-02-13T04:50:07;101964.34;;;1.44;88.49
30730;BME280;17476;48.458;7.928;2023-02-13T04:52:33;101962.66;;;1.43;88.02
30730;BME280;17476;48.458;7.928;2023-02-13T04:54:59;101961.63;;;1.24;89.74
30730;BME280;17476;48.458;7.928;2023-02-13T04:57:25;101956.56;;;1.21;89.72
30730;BME280;17476;48.458;7.928;2023-02-13T04:59:50;101963.41;;;1.22;89.57
30730;BME280;17476;48.458;7.928;2023-02-13T05:02:16;101960.50;;;1.31;89.84
30730;BME280;17476;48.458;7.928;2023-02-13T05:04:42;101960.50;;;1.31;89.23
30730;BME280;17476;48.458;7.928;2023-02-13T05:07:08;101962.31;;;1.29;88.75
30730;BME280;17476;48.458;7.928;2023-02-13T05:09:34;101957.19;;;1.27;88.17
30730;BME280;17476;48.458;7.928;2023-02-13T05:11:59;101949.59;;;1.24;87.99
30730;BME280;17476;48.458;7.928;2023-02-13T05:14:26;101951.38;;;1.22;88.23
30730;BME280;17476;48.458;7.928;2023-02-13T05:16:51;101944.50;;;1.23;88.19
30730;BME280;17476;48.458;7.928;2023-02-13T05:19:17;101946.25;;;1.21;87.61
30730;BME280;17476;48.458;7.928;2023-02-13T05:21:43;101949.78;;;1.43;90.22
30730;BME280;17476;48.458;7.928;2023-02-13T05:24:27;101954.78;;;1.23;88.93
30730;BME280;17476;48.458;7.928;2023-02-13T05:26:53;101950.13;;;1.09;89.07
30730;BME280;17476;48.458;7.928;2023-02-13T05:29:19;101958.31;;;0.95;89.00
30730;BME280;17476;48.458;7.928;2023-02-13T05:31:53;101962.75;;;0.39;91.94
30730;BME280;17476;48.458;7.928;2023-02-13T05:34:21;101962.28;;;-0.02;95.48
30730;BME280;17476;48.458;7.928;2023-02-13T05:36:48;101962.03;;;-0.22;96.74
30730;BME280;17476;48.458;7.928;2023-02-13T05:39:14;101961.13;;;-0.21;97.84
30730;BME280;17476;48.458;7.928;2023-02-13T05:41:42;101970.81;;;0.00;97.60
30730;BME280;17476;48.458;7.928;2023-02-13T05:44:09;101971.91;;;0.19;96.18
30730;BME280;17476;48.458;7.928;2023-02-13T05:46:40;101972.31;;;0.35;94.66
30730;BME280;17476;48.458;7.928;2023-02-13T05:49:07;101971.03;;;0.48;93.89
30730;BME280;17476;48.458;7.928;2023-02-13T05:51:34;101966.75;;;0.47;94.37
30730;BME280;17476;48.458;7.928;2023-02-13T05:54:00;101978.59;;;0.53;93.91
30730;BME280;17476;48.458;7.928;2023-02-13T05:56:26;101971.63;;;0.57;93.76
30730;BME280;17476;48.458;7.928;2023-02-13T05:58:53;101973.69;;;0.45;93.50
30730;BME280;17476;48.458;7.928;2023-02-13T06:01:21;101973.78;;;0.42;94.91
30730;BME280;17476;48.458;7.928;2023-02-13T06:03:47;101977.41;;;0.37;97.01
30730;BME280;17476;48.458;7.928;2023-02-13T06:06:14;101990.16;;;0.40;97.70
30730;BME280;17476;48.458;7.928;2023-02-13T06:08:40;101988.75;;;0.58;97.68
30730;BME280;17476;48.458;7.928;2023-02-13T06:11:07;101986.38;;;0.78;97.56
30730;BME280;17476;48.458;7.928;2023-02-13T06:13:32;101986.69;;;0.94;96.64
30730;BME280;17476;48.458;7.928;2023-02-13T06:15:58;101993.09;;;1.08;96.23
30730;BME280;17476;48.458;7.928;2023-02-13T06:18:24;101985.81;;;1.20;95.64
30730;BME280;17476;48.458;7.928;2023-02-13T06:20:50;101992.34;;;1.30;95.31
30730;BME280;17476;48.458;7.928;2023-02-13T06:23:16;101990.69;;;1.27;95.68
30730;BME280;17476;48.458;7.928;2023-02-13T06:25:42;101996.53;;;1.32;95.88
30730;BME280;17476;48.458;7.928;2023-02-13T06:28:08;101993.63;;;1.42;95.81
30730;BME280;17476;48.458;7.928;2023-02-13T06:30:34;101986.41;;;1.51;95.04
30730;BME280;17476;48.458;7.928;2023-02-13T06:33:00;101990.56;;;1.55;95.31
30730;BME280;17476;48.458;7.928;2023-02-13T06:35:26;101997.22;;;1.61;94.70
30730;BME280;17476;48.458;7.928;2023-02-13T06:37:52;101999.88;;;1.59;95.53
30730;BME280;17476;48.458;7.928;2023-02-13T06:40:18;101999.94;;;1.58;96.67
30730;BME280;17476;48.458;7.928;2023-02-13T06:42:45;102001.00;;;1.52;98.28
30730;BME280;17476;48.458;7.928;2023-02-13T06:45:12;102004.34;;;1.54;98.14
30730;BME280;17476;48.458;7.928;2023-02-13T06:47:46;101998.19;;;1.58;97.82
30730;BME280;17476;48.458;7.928;2023-02-13T06:50:14;102005.59;;;1.44;99.90
30730;BME280;17476;48.458;7.928;2023-02-13T06:52:48;102007.53;;;1.38;100.00
30730;BME280;17476;48.458;7.928;2023-02-13T06:55:16;102009.00;;;1.45;100.00
30730;BME280;17476;48.458;7.928;2023-02-13T06:57:43;102003.44;;;1.55;100.00
30730;BME280;17476;48.458;7.928;2023-02-13T07:00:11;102010.31;;;1.56;100.00
30730;BME280;17476;48.458;7.928;2023-02-13T07:02:40;102015.22;;;1.62;100.00
30730;BME280;17476;48.458;7.928;2023-02-13T07:05:06;102014.97;;;1.70;100.00
30730;BME280;17476;48.458;7.928;2023-02-13T07:07:33;102015.47;;;1.80;100.00
30730;BME280;17476;48.458;7.928;2023-02-13T07:09:59;102017.91;;;1.83;99.54
30730;BME280;17476;48.458;7.928;2023-02-13T07:12:25;102017.97;;;1.81;100.00
30730;BME280;17476;48.458;7.928;2023-02-13T07:14:51;102023.66;;;1.91;99.97
30730;BME280;17476;48.458;7.928;2023-02-13T07:17:17;102023.31;;;2.00;99.72
30730;BME280;17476;48.458;7.928;2023-02-13T07:19:43;102025.44;;;2.12;99.80
30730;BME280;17476;48.458;7.928;2023-02-13T07:22:08;102026.13;;;2.17;99.73
30730;BME280;17476;48.458;7.928;2023-02-13T07:24:34;102030.47;;;2.15;98.83
30730;BME280;17476;48.458;7.928;2023-02-13T07:27:04;102031.59;;;2.08;99.66
30730;BME280;17476;48.458;7.928;2023-02-13T07:29:30;102029.69;;;2.13;100.00
30730;BME280;17476;48.458;7.928;2023-02-13T07:31:56;102031.38;;;2.14;100.00
30730;BME280;17476;48.458;7.928;2023-02-13T07:34:22;102030.31;;;2.20;100.00
30730;BME280;17476;48.458;7.928;2023-02-13T07:36:47;102034.13;;;2.10;100.00
30730;BME280;17476;48.458;7.928;2023-02-13T07:39:13;102030.53;;;2.14;100.00
30730;BME280;17476;48.458;7.928;2023-02-13T07:41:39;102032.97;;;2.18;100.00
30730;BME280;17476;48.458;7.928;2023-02-13T07:44:05;102036.75;;;2.32;100.00
30730;BME280;17476;48.458;7.928;2023-02-13T07:46:31;102037.28;;;2.40;100.00
30730;BME280;17476;48.458;7.928;2023-02-13T07:48:56;102025.38;;;2.36;100.00
30730;BME280;17476;48.458;7.928;2023-02-13T07:51:22;102038.38;;;2.34;100.00
30730;BME280;17476;48.458;7.928;2023-02-13T07:53:54;102034.53;;;2.44;100.00
30730;BME280;17476;48.458;7.928;2023-02-13T07:56:21;102038.00;;;2.43;100.00
30730;BME280;17476;48.458;7.928;2023-02-13T07:58:47;102036.69;;;2.33;100.00
30730;BME280;17476;48.458;7.928;2023-02-13T08:01:15;102035.56;;;2.40;100.00
30730;BME280;17476;48.458;7.928;2023-02-13T08:03:41;102030.56;;;2.36;100.00
30730;BME280;17476;48.458;7.928;2023-02-13T08:06:08;102033.66;;;2.22;100.00
30730;BME280;17476;48.458;7.928;2023-02-13T08:08:34;102038.50;;;2.08;100.00
30730;BME280;17476;48.458;7.928;2023-02-13T08:11:10;102033.91;;;2.16;100.00
30730;BME280;17476;48.458;7.928;2023-02-13T08:13:56;102039.13;;;2.36;100.00
30730;BME280;17476;48.458;7.928;2023-02-13T08:16:22;102029.06;;;2.52;100.00
30730;BME280;17476;48.458;7.928;2023-02-13T08:18:47;102034.78;;;2.60;100.00
30730;BME280;17476;48.458;7.928;2023-02-13T08:21:13;102038.63;;;2.72;100.00
30730;BME280;17476;48.458;7.928;2023-02-13T08:23:39;102033.66;;;2.88;100.00
30730;BME280;17476;48.458;7.928;2023-02-13T08:26:05;102029.28;;;3.10;100.00
30730;BME280;17476;48.458;7.928;2023-02-13T08:28:31;102029.16;;;3.13;100.00
30730;BME280;17476;48.458;7.928;2023-02-13T08:30:57;102021.94;;;3.01;100.00
30730;BME280;17476;48.458;7.928;2023-02-13T08:33:23;102023.66;;;3.00;100.00
30730;BME280;17476;48.458;7.928;2023-02-13T08:35:48;102022.63;;;3.25;100.00
30730;BME280;17476;48.458;7.928;2023-02-13T08:38:14;102024.69;;;3.37;100.00
30730;BME280;17476;48.458;7.928;2023-02-13T08:40:40;102026.06;;;3.46;100.00
30730;BME280;17476;48.458;7.928;2023-02-13T08:43:06;102020.47;;;3.55;100.00
30730;BME280;17476;48.458;7.928;2023-02-13T08:45:34;102020.03;;;3.45;100.00
30730;BME280;17476;48.458;7.928;2023-02-13T08:48:00;102015.03;;;3.61;99.55
30730;BME280;17476;48.458;7.928;2023-02-13T08:50:28;102005.03;;;3.72;99.47
30730;BME280;17476;48.458;7.928;2023-02-13T08:52:54;102000.78;;;3.90;99.50
30730;BME280;17476;48.458;7.928;2023-02-13T08:55:20;102011.72;;;3.97;98.83
30730;BME280;17476;48.458;7.928;2023-02-13T08:57:46;102005.91;;;4.10;97.67
30730;BME280;17476;48.458;7.928;2023-02-13T09:00:12;102012.91;;;4.27;98.20
30730;BME280;17476;48.458;7.928;2023-02-13T09:02:39;102010.50;;;4.42;97.77
30730;BME280;17476;48.458;7.928;2023-02-13T09:05:05;102000.00;;;4.62;98.07
30730;BME280;17476;48.458;7.928;2023-02-13T09:07:31;102010.44;;;4.60;95.26
30730;BME280;17476;48.458;7.928;2023-02-13T09:09:56;102010.13;;;4.49;94.57
30730;BME280;17476;48.458;7.928;2023-02-13T09:12:22;102012.72;;;4.66;95.19
30730;BME280;17476;48.458;7.928;2023-02-13T09:14:48;102009.91;;;4.71;94.35
30730;BME280;17476;48.458;7.928;2023-02-13T09:17:14;102011.09;;;4.83;94.59
30730;BME280;17476;48.458;7.928;2023-02-13T09:19:43;102016.94;;;4.86;92.34
30730;BME280;17476;48.458;7.928;2023-02-13T09:22:10;102018.56;;;4.89;93.88
30730;BME280;17476;48.458;7.928;2023-02-13T09:24:36;102015.66;;;4.95;92.57
30730;BME280;17476;48.458;7.928;2023-02-13T09:27:03;102021.75;;;4.94;93.09
30730;BME280;17476;48.458;7.928;2023-02-13T09:29:29;102017.19;;;4.99;93.22
30730;BME280;17476;48.458;7.928;2023-02-13T09:31:58;102017.88;;;5.03;92.96
30730;BME280;17476;48.458;7.928;2023-02-13T09:34:24;102016.34;;;4.99;89.75
30730;BME280;17476;48.458;7.928;2023-02-13T09:36:52;102007.88;;;4.78;90.59
30730;BME280;17476;48.458;7.928;2023-02-13T09:39:18;102019.53;;;4.69;91.50
30730;BME280;17476;48.458;7.928;2023-02-13T09:41:48;102019.53;;;4.86;93.21
30730;BME280;17476;48.458;7.928;2023-02-13T09:44:28;102021.53;;;4.99;90.94
30730;BME280;17476;48.458;7.928;2023-02-13T09:49:49;102018.47;;;5.08;90.64
30730;BME280;17476;48.458;7.928;2023-02-13T09:52:17;102017.31;;;5.31;93.70
30730;BME280;17476;48.458;7.928;2023-02-13T09:54:43;102018.38;;;5.44;91.36
30730;BME280;17476;48.458;7.928;2023-02-13T10:13:55;102016.78;;;6.69;96.29
30730;BME280;17476;48.458;7.928;2023-02-13T10:19:23;102017.63;;;7.00;94.29
30730;BME280;17476;48.458;7.928;2023-02-13T10:22:09;102016.06;;;7.11;92.24
30730;BME280;17476;48.458;7.928;2023-02-13T10:27:31;102015.66;;;7.33;89.52
30730;BME280;17476;48.458;7.928;2023-02-13T10:36:17;102022.63;;;7.03;85.12
30730;BME280;17476;48.458;7.928;2023-02-13T10:39:33;102019.88;;;7.06;85.36
30730;BME280;17476;48.458;7.928;2023-02-13T10:42:13;102017.09;;;7.23;84.77
30730;BME280;17476;48.458;7.928;2023-02-13T10:48:35;102011.53;;;7.44;85.39
30730;BME280;17476;48.458;7.928;2023-02-13T10:51:14;102011.53;;;7.44;84.91
30730;BME280;17476;48.458;7.928;2023-02-13T10:54:28;102001.50;;;7.80;89.07
30730;BME280;17476;48.458;7.928;2023-02-13T10:57:19;101996.38;;;7.93;84.82
30730;BME280;17476;48.458;7.928;2023-02-13T11:02:45;101990.47;;;8.45;81.80
30730;BME280;17476;48.458;7.928;2023-02-13T11:05:45;101987.03;;;8.84;82.42
30730;BME280;17476;48.458;7.928;2023-02-13T11:08:21;101978.50;;;9.20;84.70
30730;BME280;17476;48.458;7.928;2023-02-13T11:10:48;101983.94;;;9.30;80.86
30730;BME280;17476;48.458;7.928;2023-02-13T11:13:21;101970.25;;;9.39;81.97
30730;BME280;17476;48.458;7.928;2023-02-13T11:16:08;101978.19;;;9.38;81.13
30730;BME280;17476;48.458;7.928;2023-02-13T11:18:48;101976.41;;;9.38;77.45
30730;BME280;17476;48.458;7.928;2023-02-13T11:21:30;101972.25;;;9.48;81.74
30730;BME280;17476;48.458;7.928;2023-02-13T11:23:59;101981.63;;;9.51;77.72
30730;BME280;17476;48.458;7.928;2023-02-13T11:26:34;101972.13;;;9.50;76.14
30730;BME280;17476;48.458;7.928;2023-02-13T11:29:25;101972.97;;;9.38;79.62
30730;BME280;17476;48.458;7.928;2023-02-13T11:32:33;101982.47;;;9.39;74.58
30730;BME280;17476;48.458;7.928;2023-02-13T11:35:29;101977.91;;;9.29;77.83
30730;BME280;17476;48.458;7.928;2023-02-13T11:40:55;101981.22;;;9.19;77.17
30730;BME280;17476;48.458;7.928;2023-02-13T11:43:35;101981.53;;;9.14;76.72
30730;BME280;17476;48.458;7.928;2023-02-13T11:46:15;101983.41;;;9.25;79.45
30730;BME280;17476;48.458;7.928;2023-02-13T11:48:43;101979.56;;;9.18;75.36
30730;BME280;17476;48.458;7.928;2023-02-13T11:51:20;101984.03;;;8.90;75.10
30730;BME280;17476;48.458;7.928;2023-02-13T11:53:59;101979.63;;;8.91;77.89
30730;BME280;17476;48.458;7.928;2023-02-13T11:56:25;101983.31;;;8.88;75.67
30730;BME280;17476;48.458;7.928;2023-02-13T11:59:01;101981.91;;;8.70;74.21
30730;BME280;17476;48.458;7.928;2023-02-13T12:01:27;101980.31;;;8.55;73.95
30730;BME280;17476;48.458;7.928;2023-02-13T12:04:15;101982.31;;;8.64;74.64
30730;BME280;17476;48.458;7.928;2023-02-13T12:07:01;101977.03;;;8.51;76.64
30730;BME280;17476;48.458;7.928;2023-02-13T12:09:29;101979.66;;;8.51;78.20
30730;BME280;17476;48.458;7.928;2023-02-13T12:12:00;101985.16;;;8.46;75.05
30730;BME280;17476;48.458;7.928;2023-02-13T12:14:39;101977.59;;;8.56;76.11
30730;BME280;17476;48.458;7.928;2023-02-13T12:17:16;101973.84;;;8.60;77.17
30730;BME280;17476;48.458;7.928;2023-02-13T12:19:47;101967.50;;;8.64;75.55
30730;BME280;17476;48.458;7.928;2023-02-13T12:25:52;101970.78;;;8.81;76.98
30730;BME280;17476;48.458;7.928;2023-02-13T12:28:36;101971.28;;;8.86;76.41
30730;BME280;17476;48.458;7.928;2023-02-13T12:31:28;101970.97;;;8.90;73.01
30730;BME280;17476;48.458;7.928;2023-02-13T12:34:22;101969.41;;;8.88;73.17
30730;BME280;17476;48.458;7.928;2023-02-13T12:37:28;101975.97;;;8.93;73.66
30730;BME280;17476;48.458;7.928;2023-02-13T12:51:24;101962.44;;;9.01;76.85
30730;BME280;17476;48.458;7.928;2023-02-13T12:57:34;101955.66;;;9.11;74.55
30730;BME280;17476;48.458;7.928;2023-02-13T13:06:08;101954.59;;;9.14;69.85
30730;BME280;17476;48.458;7.928;2023-02-13T13:15:13;101949.06;;;9.06;73.16
30730;BME280;17476;48.458;7.928;2023-02-13T13:18:13;101946.25;;;8.96;72.15
30730;BME280;17476;48.458;7.928;2023-02-13T13:23:38;101953.84;;;8.86;73.40
30730;BME280;17476;48.458;7.928;2023-02-13T13:26:26;101951.16;;;8.88;73.38
30730;BME280;17476;48.458;7.928;2023-02-13T13:28:59;101943.50;;;8.72;73.66
30730;BME280;17476;48.458;7.928;2023-02-13T13:31:27;101943.94;;;8.79;75.01
30730;BME280;17476;48.458;7.928;2023-02-13T13:34:01;101943.72;;;8.69;74.76
30730;BME280;17476;48.458;7.928;2023-02-13T13:36:53;101937.44;;;8.71;74.74
30730;BME280;17476;48.458;7.928;2023-02-13T13:42:33;101938.78;;;8.64;74.98
30730;BME280;17476;48.458;7.928;2023-02-13T13:45:24;101936.78;;;8.42;73.72
30730;BME280;17476;48.458;7.928;2023-02-13T13:50:49;101932.78;;;8.10;76.19
30730;BME280;17476;48.458;7.928;2023-02-13T13:53:20;101927.78;;;8.07;75.92
30730;BME280;17476;48.458;7.928;2023-02-13T13:58:45;101927.59;;;7.96;77.67
30730;BME280;17476;48.458;7.928;2023-02-13T14:03:58;101925.16;;;7.80;76.39
30730;BME280;17476;48.458;7.928;2023-02-13T14:09:39;101929.31;;;7.82;77.95
30730;BME280;17476;48.458;7.928;2023-02-13T14:14:51;101927.47;;;7.70;76.86
30730;BME280;17476;48.458;7.928;2023-02-13T14:22:47;101921.47;;;7.55;78.11
30730;BME280;17476;48.458;7.928;2023-02-13T14:25:26;101926.38;;;7.60;77.59
30730;BME280;17476;48.458;7.928;2023-02-13T14:28:02;101924.88;;;7.70;74.81
30730;BME280;17476;48.458;7.928;2023-02-13T14:30:37;101927.31;;;7.59;76.90
30730;BME280;17476;48.458;7.928;2023-02-13T14:33:28;101922.00;;;7.60;78.09
30730;BME280;17476;48.458;7.928;2023-02-13T14:36:06;101920.81;;;7.66;75.98
30730;BME280;17476;48.458;7.928;2023-02-13T14:38:34;101921.81;;;7.63;76.42
30730;BME280;17476;48.458;7.928;2023-02-13T14:41:00;101916.53;;;7.51;76.75
30730;BME280;17476;48.458;7.928;2023-02-13T14:43:59;101913.19;;;7.49;78.46
30730;BME280;17476;48.458;7.928;2023-02-13T14:46:38;101915.41;;;7.55;77.75
30730;BME280;17476;48.458;7.928;2023-02-13T14:51:50;101905.84;;;7.55;78.09
30730;BME280;17476;48.458;7.928;2023-02-13T14:54:19;101907.72;;;7.53;78.63
30730;BME280;17476;48.458;7.928;2023-02-13T14:56:49;101905.63;;;7.58;77.30
30730;BME280;17476;48.458;7.928;2023-02-13T14:59:25;101904.34;;;7.51;77.18
30730;BME280;17476;48.458;7.928;2023-02-13T15:04:41;101894.75;;;7.52;78.38
30730;BME280;17476;48.458;7.928;2023-02-13T15:07:20;101897.28;;;7.53;77.99
30730;BME280;17476;48.458;7.928;2023-02-13T15:10:35;101897.38;;;7.52;77.49
30730;BME280;17476;48.458;7.928;2023-02-13T15:13:11;101891.19;;;7.40;78.30
30730;BME280;17476;48.458;7.928;2023-02-13T15:15:38;101887.00;;;7.23;79.63
30730;BME280;17476;48.458;7.928;2023-02-13T15:18:19;101881.88;;;7.22;80.04
30730;BME280;17476;48.458;7.928;2023-02-13T15:20:46;101881.50;;;7.28;79.40
30730;BME280;17476;48.458;7.928;2023-02-13T15:23:24;101881.50;;;7.28;78.94
30730;BME280;17476;48.458;7.928;2023-02-13T15:26:05;101877.16;;;7.28;79.01
30730;BME280;17476;48.458;7.928;2023-02-13T15:28:34;101879.19;;;7.23;79.11
30730;BME280;17476;48.458;7.928;2023-02-13T15:31:22;101882.63;;;7.24;79.14
30730;BME280;17476;48.458;7.928;2023-02-13T15:33:50;101881.41;;;7.29;78.60
30730;BME280;17476;48.458;7.928;2023-02-13T15:36:25;101886.25;;;7.21;78.60
30730;BME280;17476;48.458;7.928;2023-02-13T15:39:05;101887.56;;;7.14;79.05
30730;BME280;17476;48.458;7.928;2023-02-13T15:41:50;101888.03;;;7.06;79.19
30730;BME280;17476;48.458;7.928;2023-02-13T15:44:31;101881.16;;;7.05;79.48
30730;BME280;17476;48.458;7.928;2023-02-13T15:47:28;101883.56;;;6.94;80.29
30730;BME280;17476;48.458;7.928;2023-02-13T15:49:55;101887.47;;;6.87;80.09
30730;BME280;17476;48.458;7.928;2023-02-13T15:52:30;101888.03;;;6.78;80.79